Sand Canyon, California
Current Conditions -  °F | °C
As of 7:15 PM on Wednesday 22 Oct 2014 (Local Time) from KMHV Reporting Station
Clear Clear  
Wind Chill: 68°   Ceiling: Unl
Heat Index: 68°   Visibility: 10mi
Dew Point: 32°   Wind: 3mph
Humidity: 26%   Direction: 320°NW
Pressure: 30.04"   Gusts: NA
Location:  35.1338°N, 118.552°W
Report Text: KMHV 230215Z AUTO 32003KT 10SM CLR 20/00 A3004 RMK AO1
Loading
Personal Weather Stations






























Interactive Weather Map
Tropical Storm Tracking
New forecast layout! Learn more

10-Day Weather Forecast

Advertisements
Track Severe Weather on mobile